createdAt,value
2019-03-10T00:00:29.911Z,1.40
2019-03-10T00:02:58.477Z,1.45
2019-03-10T00:05:26.929Z,1.12
2019-03-10T00:07:55.413Z,1.05
2019-03-10T00:10:23.771Z,1.20
2019-03-10T00:12:52.230Z,1.12
2019-03-10T00:15:20.841Z,1.00
2019-03-10T00:18:01.567Z,1.05
2019-03-10T00:20:31.117Z,1.10
2019-03-10T00:22:59.510Z,1.20
2019-03-10T00:25:27.893Z,1.07
2019-03-10T00:27:56.404Z,0.80
2019-03-10T00:30:24.835Z,0.93
2019-03-10T00:32:53.266Z,1.05
2019-03-10T00:35:21.840Z,0.90
2019-03-10T00:37:50.223Z,0.98
2019-03-10T00:40:51.723Z,1.02
2019-03-10T00:43:40.949Z,1.17
2019-03-10T00:46:32.905Z,1.17
2019-03-10T00:49:18.887Z,1.40
2019-03-10T00:52:08.781Z,1.10
2019-03-10T00:54:37.244Z,1.20
2019-03-10T00:57:06.728Z,0.80
2019-03-10T00:59:35.214Z,1.12
2019-03-10T01:02:03.758Z,0.95
2019-03-10T01:04:32.185Z,0.90
2019-03-10T01:07:01.719Z,1.10
2019-03-10T01:09:30.418Z,1.00
2019-03-10T01:11:58.866Z,1.30
2019-03-10T01:14:27.325Z,1.27
2019-03-10T01:16:56.130Z,1.60
2019-03-10T01:19:24.548Z,1.65
2019-03-10T01:21:53.107Z,1.80
2019-03-10T01:24:21.571Z,1.98
2019-03-10T01:26:50.036Z,1.80
2019-03-10T01:29:18.449Z,1.80
2019-03-10T01:32:02.310Z,1.77
2019-03-10T01:34:49.261Z,2.25
2019-03-10T01:37:17.652Z,2.33
2019-03-10T01:39:46.124Z,1.95
2019-03-10T01:42:14.640Z,2.00
2019-03-10T01:44:43.112Z,2.05
2019-03-10T01:47:11.569Z,1.65
2019-03-10T01:49:40.121Z,1.87
2019-03-10T01:52:08.478Z,1.87
2019-03-10T01:54:36.845Z,1.67
2019-03-10T01:57:05.309Z,1.72
2019-03-10T01:59:33.689Z,1.30
2019-03-10T02:02:02.168Z,1.50
2019-03-10T02:04:30.633Z,1.35
2019-03-10T02:06:59.058Z,1.30
2019-03-10T02:09:27.442Z,1.02
2019-03-10T02:11:55.873Z,1.10
2019-03-10T02:14:24.282Z,1.17
2019-03-10T02:16:52.570Z,1.07
2019-03-10T02:19:20.938Z,1.45
2019-03-10T02:21:49.357Z,1.05
2019-03-10T02:24:23.713Z,1.30
2019-03-10T02:26:47.847Z,1.57
2019-03-10T02:29:16.268Z,1.40
2019-03-10T02:31:44.742Z,1.22
2019-03-10T02:34:14.235Z,1.55
2019-03-10T02:36:42.660Z,1.47
2019-03-10T02:39:11.034Z,1.20
2019-03-10T02:41:39.592Z,1.40
2019-03-10T02:44:08.007Z,1.60
2019-03-10T02:46:36.483Z,2.22
2019-03-10T02:49:04.997Z,2.30
2019-03-10T02:51:33.410Z,2.50
2019-03-10T02:54:01.942Z,2.83
2019-03-10T02:56:30.506Z,2.45
2019-03-10T02:58:58.869Z,2.70
2019-03-10T03:01:27.331Z,2.10
2019-03-10T03:03:55.783Z,2.30
2019-03-10T03:06:24.477Z,2.10
2019-03-10T03:08:52.935Z,2.35
2019-03-10T03:11:21.476Z,2.30
2019-03-10T03:13:49.884Z,2.50
2019-03-10T03:16:18.362Z,2.58
2019-03-10T03:18:46.864Z,2.60
2019-03-10T03:21:15.372Z,2.20
2019-03-10T03:23:43.794Z,2.50
2019-03-10T03:26:12.268Z,2.15
2019-03-10T03:28:40.724Z,2.20
2019-03-10T03:31:09.208Z,2.12
2019-03-10T03:33:37.785Z,2.22
2019-03-10T03:36:15.456Z,2.40
2019-03-10T03:38:48.572Z,2.10
2019-03-10T03:41:24.709Z,2.02
2019-03-10T03:43:53.216Z,2.20
2019-03-10T03:46:21.677Z,1.80
2019-03-10T03:48:50.170Z,1.77
2019-03-10T03:51:18.613Z,2.22
2019-03-10T03:53:46.992Z,2.22
2019-03-10T03:56:15.430Z,2.10
2019-03-10T03:58:43.920Z,1.92
2019-03-10T04:01:16.670Z,1.72
2019-03-10T04:03:45.056Z,1.45
2019-03-10T04:06:13.570Z,1.90
2019-03-10T04:08:41.975Z,1.55
2019-03-10T04:11:10.437Z,1.70
2019-03-10T04:13:38.987Z,1.62
2019-03-10T04:16:07.444Z,1.60
2019-03-10T04:18:36.055Z,1.37
2019-03-10T04:21:04.520Z,1.50
2019-03-10T04:23:32.959Z,1.70
2019-03-10T04:26:01.553Z,1.72
2019-03-10T04:28:49.454Z,1.80
2019-03-10T04:31:17.987Z,1.80
2019-03-10T04:33:46.455Z,1.72
2019-03-10T04:36:14.832Z,1.60
2019-03-10T04:38:43.349Z,1.40
2019-03-10T04:41:11.793Z,1.30
2019-03-10T04:43:40.162Z,1.25
2019-03-10T04:46:08.732Z,1.50
2019-03-10T04:48:37.164Z,1.10
2019-03-10T04:51:05.593Z,1.27
2019-03-10T04:53:34.104Z,1.17
2019-03-10T04:56:04.530Z,1.30
2019-03-10T04:58:34.609Z,1.40
2019-03-10T05:01:03.378Z,1.90
2019-03-10T05:03:31.838Z,2.17
2019-03-10T05:06:00.278Z,2.15
2019-03-10T05:08:28.798Z,2.40
2019-03-10T05:10:57.240Z,2.30
2019-03-10T05:13:25.702Z,2.50
2019-03-10T05:15:54.324Z,2.25
2019-03-10T05:18:22.691Z,2.30
2019-03-10T05:20:50.977Z,2.60
2019-03-10T05:23:34.434Z,2.15
2019-03-10T05:26:02.838Z,2.20
2019-03-10T05:28:33.819Z,1.98
2019-03-10T05:31:02.386Z,2.20
2019-03-10T05:33:30.824Z,2.00
2019-03-10T05:35:59.215Z,1.82
2019-03-10T05:38:27.728Z,1.50
2019-03-10T05:40:56.143Z,1.50
2019-03-10T05:43:24.513Z,1.55
2019-03-10T05:45:52.966Z,1.52
2019-03-10T05:48:21.388Z,1.50
2019-03-10T05:50:49.863Z,1.60
2019-03-10T05:53:18.298Z,1.40
2019-03-10T05:55:46.758Z,1.45
2019-03-10T05:58:15.238Z,1.72
2019-03-10T06:00:43.749Z,1.57
2019-03-10T06:03:12.207Z,2.00
2019-03-10T06:05:40.679Z,1.80
2019-03-10T06:08:09.213Z,1.45
2019-03-10T06:10:37.635Z,1.47
2019-03-10T06:13:06.090Z,1.65
2019-03-10T06:15:34.633Z,1.42
2019-03-10T06:18:13.005Z,1.90
2019-03-10T06:20:33.280Z,2.58
2019-03-10T06:23:01.683Z,1.95
2019-03-10T06:25:30.116Z,2.10
2019-03-10T06:27:58.496Z,2.33
2019-03-10T06:30:26.924Z,1.92
2019-03-10T06:32:55.381Z,1.82
2019-03-10T06:35:23.914Z,2.10
2019-03-10T06:37:52.443Z,1.60
2019-03-10T06:40:31.376Z,1.90
2019-03-10T06:42:51.177Z,2.40
2019-03-10T06:45:19.647Z,2.77
2019-03-10T06:47:48.109Z,3.08
2019-03-10T06:50:17.651Z,2.42
2019-03-10T06:52:46.113Z,3.10
2019-03-10T06:55:14.420Z,3.00
2019-03-10T06:57:43.896Z,2.50
2019-03-10T07:00:13.640Z,2.72
2019-03-10T07:02:42.029Z,2.50
2019-03-10T07:05:11.873Z,2.95
2019-03-10T07:07:59.826Z,2.58
2019-03-10T07:10:28.180Z,2.98
2019-03-10T07:12:56.570Z,2.87
2019-03-10T07:15:25.104Z,2.90
2019-03-10T07:17:53.525Z,3.25
2019-03-10T07:20:21.941Z,2.98
2019-03-10T07:22:50.400Z,3.00
2019-03-10T07:25:18.942Z,3.10
2019-03-10T07:27:51.775Z,3.02
2019-03-10T07:30:39.245Z,3.00
2019-03-10T07:33:25.179Z,3.40
2019-03-10T07:35:58.220Z,2.92
2019-03-10T07:38:28.259Z,2.52
2019-03-10T07:41:16.444Z,2.50
2019-03-10T07:43:52.260Z,2.08
2019-03-10T07:46:22.402Z,2.25
2019-03-10T07:49:01.666Z,2.42
2019-03-10T07:51:34.580Z,2.02
2019-03-10T07:54:13.854Z,1.90
2019-03-10T07:57:00.322Z,1.80
2019-03-10T08:02:18.786Z,1.80
2019-03-10T08:07:45.307Z,1.65
2019-03-10T08:10:17.857Z,1.52
2019-03-10T08:13:06.002Z,1.37
2019-03-10T08:15:44.694Z,1.20
2019-03-10T08:18:31.059Z,1.22
2019-03-10T08:23:54.396Z,1.00
2019-03-10T08:26:42.545Z,1.52
2019-03-10T08:31:56.885Z,2.40
2019-03-10T08:34:42.188Z,2.60
2019-03-10T08:37:21.198Z,2.90
2019-03-10T08:40:06.597Z,2.40
2019-03-10T08:42:39.335Z,3.10
2019-03-10T08:45:19.178Z,2.90
2019-03-10T08:48:06.889Z,2.47
2019-03-10T08:50:37.020Z,2.33
2019-03-10T08:56:11.169Z,2.80
2019-03-10T08:58:57.329Z,2.70
2019-03-10T09:01:43.608Z,2.83
2019-03-10T09:04:30.038Z,3.20
2019-03-10T09:09:47.382Z,3.72
2019-03-10T09:12:17.456Z,4.00
2019-03-10T09:14:47.501Z,3.40
2019-03-10T09:17:17.525Z,4.00
2019-03-10T09:20:03.953Z,6.10
2019-03-10T09:25:31.749Z,3.87
2019-03-10T09:28:30.186Z,4.17
2019-03-10T09:31:03.131Z,4.50
2019-03-10T09:33:39.218Z,3.80
2019-03-10T09:36:09.309Z,3.52
2019-03-10T09:38:54.422Z,3.08
2019-03-10T09:41:31.435Z,3.58
2019-03-10T09:44:04.569Z,2.77
2019-03-10T09:46:46.697Z,3.20
2019-03-10T09:49:22.636Z,3.20
2019-03-10T09:52:11.261Z,3.20
2019-03-10T09:54:53.653Z,2.85
2019-03-10T09:57:23.720Z,3.08
2019-03-10T09:59:53.717Z,3.10
2019-03-10T10:02:29.442Z,3.17
2019-03-10T10:04:59.529Z,2.80
2019-03-10T10:07:29.537Z,2.75
2019-03-10T10:10:02.457Z,2.75
2019-03-10T10:12:35.511Z,2.58
2019-03-10T10:15:13.147Z,3.00
2019-03-10T10:17:52.061Z,2.67
2019-03-10T10:20:37.038Z,2.80
2019-03-10T10:23:23.613Z,3.33
2019-03-10T10:26:05.741Z,3.98
2019-03-10T10:28:54.354Z,3.50
2019-03-10T10:31:24.361Z,2.80
2019-03-10T10:34:06.236Z,2.98
2019-03-10T10:36:45.176Z,2.83
2019-03-10T10:39:15.324Z,4.12
2019-03-10T10:41:45.267Z,4.33
2019-03-10T10:44:15.216Z,4.67
2019-03-10T10:46:54.262Z,3.65
2019-03-10T10:49:42.486Z,3.55
2019-03-10T10:52:18.358Z,3.50
2019-03-10T10:54:48.408Z,3.05
2019-03-10T10:57:21.198Z,2.80
2019-03-10T10:59:51.254Z,2.92
2019-03-10T11:02:21.256Z,2.67
2019-03-10T11:04:51.264Z,2.35
2019-03-10T11:07:21.377Z,2.30
2019-03-10T11:09:54.496Z,2.50
2019-03-10T11:12:33.397Z,2.30
2019-03-10T11:15:21.626Z,2.50
2019-03-10T11:17:54.694Z,1.90
2019-03-10T11:20:24.797Z,2.65
2019-03-10T11:23:11.043Z,2.62
2019-03-10T11:25:41.154Z,2.87
2019-03-10T11:28:23.204Z,2.83
2019-03-10T11:31:08.340Z,3.70
2019-03-10T11:33:41.367Z,2.80
2019-03-10T11:36:17.313Z,2.50
2019-03-10T11:38:53.085Z,2.55
2019-03-10T11:41:33.045Z,2.20
2019-03-10T11:44:06.843Z,2.25
2019-03-10T11:46:39.591Z,1.98
2019-03-10T11:49:09.636Z,1.80
2019-03-10T11:51:39.670Z,1.90
2019-03-10T11:54:18.762Z,2.30
2019-03-10T11:56:48.782Z,1.80
2019-03-10T11:59:18.761Z,2.30
2019-03-10T12:02:03.803Z,3.08
2019-03-10T12:04:33.764Z,3.58
2019-03-10T12:07:03.906Z,3.83
2019-03-10T12:09:32.248Z,3.72
2019-03-10T12:12:00.608Z,3.52
2019-03-10T12:14:29.302Z,2.87
2019-03-10T12:16:57.761Z,2.25
2019-03-10T12:19:26.210Z,2.40
2019-03-10T12:21:56.025Z,2.08
2019-03-10T12:24:24.781Z,2.10
2019-03-10T12:26:53.142Z,2.10
2019-03-10T12:29:21.641Z,2.45
2019-03-10T12:31:49.979Z,2.52
2019-03-10T12:34:18.394Z,3.70
2019-03-10T12:36:47.081Z,4.10
2019-03-10T12:39:17.150Z,3.40
2019-03-10T12:41:45.981Z,2.55
2019-03-10T12:44:14.405Z,3.87
2019-03-10T12:46:42.771Z,3.50
2019-03-10T12:49:11.333Z,3.58
2019-03-10T12:51:39.902Z,2.95
2019-03-10T12:54:08.390Z,2.77
2019-03-10T12:56:36.847Z,3.35
2019-03-10T12:59:05.344Z,3.40
2019-03-10T13:01:33.722Z,2.60
2019-03-10T13:04:02.157Z,3.10
2019-03-10T13:06:31.880Z,2.98
2019-03-10T13:09:00.384Z,2.90
2019-03-10T13:11:28.874Z,2.20
2019-03-10T13:13:57.351Z,2.00
2019-03-10T13:16:25.713Z,2.65
2019-03-10T13:18:54.152Z,2.52
2019-03-10T13:21:22.749Z,3.35
2019-03-10T13:23:53.946Z,3.20
2019-03-10T13:26:22.378Z,2.27
2019-03-10T13:28:50.790Z,2.60
2019-03-10T13:31:19.274Z,2.62
2019-03-10T13:33:47.717Z,3.00
2019-03-10T13:36:17.069Z,3.70
2019-03-10T13:38:45.508Z,3.42
2019-03-10T13:41:13.978Z,3.30
2019-03-10T13:43:42.483Z,2.85
2019-03-10T13:46:10.780Z,2.12
2019-03-10T13:48:39.140Z,2.55
2019-03-10T13:51:07.673Z,2.12
2019-03-10T13:53:36.118Z,2.52
2019-03-10T13:56:04.509Z,2.30
2019-03-10T13:58:32.914Z,2.50
2019-03-10T14:01:01.247Z,3.00
2019-03-10T14:03:29.700Z,2.50
2019-03-10T14:05:58.194Z,2.20
2019-03-10T14:08:26.620Z,2.12
2019-03-10T14:10:54.982Z,2.20
2019-03-10T14:13:23.408Z,2.37
2019-03-10T14:15:51.921Z,2.70
2019-03-10T14:18:21.448Z,2.80
2019-03-10T14:20:49.963Z,2.35
2019-03-10T14:23:18.452Z,1.82
2019-03-10T14:25:46.828Z,1.90
2019-03-10T14:28:15.236Z,1.80
2019-03-10T14:30:43.868Z,1.77
2019-03-10T14:33:12.344Z,1.57
2019-03-10T14:35:40.910Z,1.50
2019-03-10T14:38:09.338Z,2.40
2019-03-10T14:40:57.169Z,1.85
2019-03-10T14:43:25.570Z,2.02
2019-03-10T14:46:14.629Z,1.92
2019-03-10T14:49:02.585Z,1.70
2019-03-10T14:51:31.086Z,1.70
2019-03-10T14:53:59.432Z,1.80
2019-03-10T14:56:27.727Z,1.90
2019-03-10T14:58:56.280Z,2.10
2019-03-10T15:01:24.670Z,2.15
2019-03-10T15:03:53.351Z,2.40
2019-03-10T15:06:21.795Z,1.90
2019-03-10T15:08:50.192Z,1.80
2019-03-10T15:11:18.613Z,1.70
2019-03-10T15:13:46.967Z,1.60
2019-03-10T15:16:15.401Z,1.90
2019-03-10T15:18:43.888Z,1.42
2019-03-10T15:21:12.564Z,1.47
2019-03-10T15:23:40.988Z,1.52
2019-03-10T15:26:09.403Z,1.65
2019-03-10T15:28:37.768Z,2.02
2019-03-10T15:31:06.080Z,2.30
2019-03-10T15:33:36.477Z,2.65
2019-03-10T15:38:54.484Z,2.50
2019-03-10T15:41:22.908Z,2.10
2019-03-10T15:43:51.302Z,2.27
2019-03-10T15:46:19.807Z,1.90
2019-03-10T15:48:48.139Z,1.87
2019-03-10T15:51:16.722Z,1.70
2019-03-10T15:53:45.526Z,1.87
2019-03-10T15:56:13.990Z,1.52
2019-03-10T15:58:42.444Z,1.40
2019-03-10T16:01:10.985Z,2.90
2019-03-10T16:03:39.336Z,3.60
2019-03-10T16:06:07.684Z,2.60
2019-03-10T16:08:36.291Z,2.90
2019-03-10T16:11:04.740Z,2.72
2019-03-10T16:13:33.162Z,3.70
2019-03-10T16:16:01.708Z,2.77
2019-03-10T16:18:30.163Z,2.90
2019-03-10T16:20:58.675Z,3.37
2019-03-10T16:23:27.172Z,2.95
2019-03-10T16:25:55.663Z,2.37
2019-03-10T16:28:24.152Z,2.20
2019-03-10T16:30:52.610Z,2.50
2019-03-10T16:33:20.972Z,2.22
2019-03-10T16:35:49.360Z,2.15
2019-03-10T16:38:17.861Z,2.62
2019-03-10T16:40:46.187Z,2.30
2019-03-10T16:43:14.665Z,2.65
2019-03-10T16:45:43.140Z,2.72
2019-03-10T16:48:11.709Z,2.72
2019-03-10T16:50:40.199Z,4.40
2019-03-10T16:53:08.746Z,10.23
2019-03-10T16:55:37.265Z,4.65
2019-03-10T16:58:05.762Z,3.42
2019-03-10T17:00:34.188Z,3.30
2019-03-10T17:03:02.678Z,3.10
2019-03-10T17:05:31.119Z,2.40
2019-03-10T17:07:59.678Z,2.40
2019-03-10T17:10:29.629Z,2.20
2019-03-10T17:12:58.061Z,1.87
2019-03-10T17:15:26.617Z,1.80
2019-03-10T17:17:55.184Z,1.75
2019-03-10T17:20:23.581Z,1.80
2019-03-10T17:22:52.221Z,1.60
2019-03-10T17:25:20.580Z,1.75
2019-03-10T17:27:49.049Z,2.20
2019-03-10T17:30:21.089Z,1.82
2019-03-10T17:32:49.749Z,1.80
2019-03-10T17:35:19.100Z,1.70
2019-03-10T17:37:48.760Z,1.52
2019-03-10T17:40:25.568Z,2.40
2019-03-10T17:45:26.034Z,1.50
2019-03-10T17:47:54.504Z,1.10
2019-03-10T17:50:23.002Z,1.10
2019-03-10T17:52:51.409Z,1.30
2019-03-10T17:55:20.884Z,1.47
2019-03-10T17:58:08.960Z,0.88
2019-03-10T18:00:39.270Z,0.90
2019-03-10T18:03:07.672Z,0.90
2019-03-10T18:05:36.155Z,1.10
2019-03-10T18:08:04.682Z,1.30
2019-03-10T18:10:33.138Z,2.00
2019-03-10T18:13:01.665Z,2.50
2019-03-10T18:15:30.087Z,2.58
2019-03-10T18:17:58.528Z,2.85
2019-03-10T18:20:26.987Z,2.75
2019-03-10T18:22:55.413Z,2.20
2019-03-10T18:25:23.948Z,1.80
2019-03-10T18:27:52.310Z,1.52
2019-03-10T18:30:21.830Z,1.70
2019-03-10T18:33:09.668Z,1.65
2019-03-10T18:35:37.997Z,1.90
2019-03-10T18:38:06.596Z,2.00
2019-03-10T18:40:35.141Z,2.50
2019-03-10T18:43:03.605Z,2.72
2019-03-10T18:45:32.105Z,2.60
2019-03-10T18:48:00.554Z,2.42
2019-03-10T18:50:29.044Z,2.35
2019-03-10T18:52:57.566Z,2.45
2019-03-10T18:55:25.995Z,2.45
2019-03-10T18:57:54.407Z,3.12
2019-03-10T19:00:32.006Z,3.40
2019-03-10T19:03:00.480Z,4.37
2019-03-10T19:05:28.979Z,5.20
2019-03-10T19:07:57.597Z,6.20
2019-03-10T19:10:26.005Z,6.90
2019-03-10T19:12:54.491Z,6.42
2019-03-10T19:15:24.209Z,5.55
2019-03-10T19:18:04.798Z,5.45
2019-03-10T19:20:33.357Z,5.42
2019-03-10T19:23:08.713Z,5.05
2019-03-10T19:25:37.206Z,5.55
2019-03-10T19:28:05.802Z,4.72
2019-03-10T19:30:34.307Z,5.00
2019-03-10T19:33:02.817Z,5.00
2019-03-10T19:35:31.487Z,5.10
2019-03-10T19:38:00.066Z,5.05
2019-03-10T19:40:28.667Z,4.15
2019-03-10T19:42:57.447Z,3.58
2019-03-10T19:45:25.929Z,3.90
2019-03-10T19:47:54.421Z,4.85
2019-03-10T19:50:27.998Z,5.08
2019-03-10T19:52:56.638Z,5.53
2019-03-10T19:55:25.110Z,5.20
2019-03-10T19:57:54.135Z,4.25
2019-03-10T20:00:23.377Z,4.33
2019-03-10T20:02:51.866Z,5.10
2019-03-10T20:05:20.345Z,5.08
2019-03-10T20:07:48.701Z,5.20
2019-03-10T20:10:18.322Z,5.22
2019-03-10T20:12:46.824Z,6.00
2019-03-10T20:15:25.713Z,5.37
2019-03-10T20:17:55.315Z,4.80
2019-03-10T20:20:26.276Z,4.40
2019-03-10T20:22:54.912Z,4.03
2019-03-10T20:25:23.421Z,4.00
2019-03-10T20:27:51.921Z,3.42
2019-03-10T20:30:21.656Z,2.90
2019-03-10T20:32:50.088Z,2.65
2019-03-10T20:35:18.641Z,2.33
2019-03-10T20:37:47.136Z,2.50
2019-03-10T20:40:17.775Z,3.00
2019-03-10T20:42:46.241Z,2.85
2019-03-10T20:45:14.854Z,3.30
2019-03-10T20:48:02.820Z,3.80
2019-03-10T20:50:31.219Z,3.50
2019-03-10T20:52:59.665Z,3.47
2019-03-10T20:55:30.744Z,4.30
2019-03-10T20:57:59.195Z,4.20
2019-03-10T21:00:30.368Z,4.00
2019-03-10T21:02:58.924Z,4.15
2019-03-10T21:05:27.392Z,4.20
2019-03-10T21:08:01.558Z,4.42
2019-03-10T21:10:30.036Z,4.20
2019-03-10T21:12:58.540Z,4.42
2019-03-10T21:15:27.146Z,5.20
2019-03-10T21:17:55.531Z,5.55
2019-03-10T21:20:26.257Z,5.55
2019-03-10T21:22:54.712Z,4.97
2019-03-10T21:25:31.148Z,5.03
2019-03-10T21:27:59.701Z,4.60
2019-03-10T21:30:29.891Z,5.30
2019-03-10T21:32:58.340Z,4.55
2019-03-10T21:35:26.838Z,3.98
2019-03-10T21:37:55.385Z,3.62
2019-03-10T21:40:26.279Z,3.25
2019-03-10T21:42:54.705Z,3.47
2019-03-10T21:45:23.246Z,3.90
2019-03-10T21:47:51.685Z,4.70
2019-03-10T21:50:20.137Z,4.62
2019-03-10T21:52:48.711Z,4.70
2019-03-10T21:55:17.979Z,5.25
2019-03-10T21:57:46.378Z,5.15
2019-03-10T22:00:19.477Z,5.62
2019-03-10T22:02:47.941Z,5.70
2019-03-10T22:05:17.277Z,5.60
2019-03-10T22:07:45.763Z,4.72
2019-03-10T22:10:27.607Z,4.87
2019-03-10T22:12:51.726Z,4.67
2019-03-10T22:15:20.957Z,4.45
2019-03-10T22:17:49.484Z,4.80
2019-03-10T22:20:20.960Z,5.00
2019-03-10T22:22:50.203Z,5.40
2019-03-10T22:25:18.859Z,4.22
2019-03-10T22:27:47.330Z,4.83
2019-03-10T22:30:19.061Z,4.58
2019-03-10T22:32:47.572Z,5.55
2019-03-10T22:35:15.925Z,5.50
2019-03-10T22:37:44.369Z,4.50
2019-03-10T22:40:17.583Z,4.20
2019-03-10T22:42:46.043Z,3.77
2019-03-10T22:45:20.750Z,3.20
2019-03-10T22:48:08.794Z,3.20
2019-03-10T22:50:40.278Z,2.75
2019-03-10T22:53:08.772Z,2.87
2019-03-10T22:55:37.194Z,2.80
2019-03-10T22:58:05.579Z,3.10
2019-03-10T23:00:53.769Z,2.92
2019-03-10T23:03:22.178Z,3.20
2019-03-10T23:05:50.634Z,3.08
2019-03-10T23:08:19.057Z,3.08
2019-03-10T23:10:47.534Z,3.67
2019-03-10T23:13:15.987Z,3.80
2019-03-10T23:15:44.526Z,4.40
2019-03-10T23:18:12.917Z,4.78
2019-03-10T23:20:41.337Z,5.05
2019-03-10T23:23:09.809Z,5.80
2019-03-10T23:25:38.170Z,5.33
2019-03-10T23:28:06.636Z,4.97
2019-03-10T23:30:35.159Z,4.87
2019-03-10T23:33:03.620Z,5.50
2019-03-10T23:35:32.212Z,6.03
2019-03-10T23:38:00.747Z,5.58
2019-03-10T23:40:29.222Z,6.40
2019-03-10T23:42:57.620Z,5.40
2019-03-10T23:45:26.095Z,5.15
2019-03-10T23:47:55.301Z,4.83
2019-03-10T23:50:23.733Z,4.95
2019-03-10T23:52:52.199Z,5.60
2019-03-10T23:55:20.656Z,4.90
2019-03-10T23:57:49.125Z,4.30
